sensor_id;sensor_type;location;lat;lon;timestamp;noise_LAeq;noise_LA_min;noise_LA_max;noise_LA01;noise_LA95
60872;Laerm;46714;50.118;14.462;2022-09-28T00:00:02;66.52;43.19;76.27;;
60872;Laerm;46714;50.118;14.462;2022-09-28T00:02:27;65.89;51.84;76.06;;
60872;Laerm;46714;50.118;14.462;2022-09-28T00:04:53;65.31;47.72;74.78;;
60872;Laerm;46714;50.118;14.462;2022-09-28T00:07:18;67.75;50.56;75.56;;
60872;Laerm;46714;50.118;14.462;2022-09-28T00:09:43;65.67;52.18;75.43;;
60872;Laerm;46714;50.118;14.462;2022-09-28T00:12:09;67.56;50.85;76.91;;
60872;Laerm;46714;50.118;14.462;2022-09-28T00:14:36;66.97;47.16;76.32;;
60872;Laerm;46714;50.118;14.462;2022-09-28T00:17:01;65.15;47.48;73.99;;
60872;Laerm;46714;50.118;14.462;2022-09-28T00:19:26;69.26;56.80;82.70;;
60872;Laerm;46714;50.118;14.462;2022-09-28T00:21:52;67.32;54.50;75.44;;
60872;Laerm;46714;50.118;14.462;2022-09-28T00:24:17;68.92;55.43;78.40;;
60872;Laerm;46714;50.118;14.462;2022-09-28T00:26:54;67.51;54.78;76.75;;
60872;Laerm;46714;50.118;14.462;2022-09-28T00:29:23;64.49;44.65;72.65;;
60872;Laerm;46714;50.118;14.462;2022-09-28T00:31:52;67.41;51.75;72.46;;
60872;Laerm;46714;50.118;14.462;2022-09-28T00:34:18;67.79;51.62;77.54;;
60872;Laerm;46714;50.118;14.462;2022-09-28T00:36:45;67.80;53.32;77.25;;
60872;Laerm;46714;50.118;14.462;2022-09-28T00:39:12;66.61;49.60;78.28;;
60872;Laerm;46714;50.118;14.462;2022-09-28T00:41:39;67.29;53.37;77.74;;
60872;Laerm;46714;50.118;14.462;2022-09-28T00:46:59;67.28;54.53;78.46;;
60872;Laerm;46714;50.118;14.462;2022-09-28T00:52:12;67.74;54.31;77.22;;
60872;Laerm;46714;50.118;14.462;2022-09-28T00:54:40;64.11;49.79;74.28;;
60872;Laerm;46714;50.118;14.462;2022-09-28T00:57:07;67.75;52.02;76.54;;
60872;Laerm;46714;50.118;14.462;2022-09-28T00:59:33;67.38;52.89;77.26;;
60872;Laerm;46714;50.118;14.462;2022-09-28T01:02:00;66.40;51.87;76.21;;
60872;Laerm;46714;50.118;14.462;2022-09-28T01:04:26;67.23;50.16;75.80;;
60872;Laerm;46714;50.118;14.462;2022-09-28T01:06:51;67.94;55.72;75.39;;
60872;Laerm;46714;50.118;14.462;2022-09-28T01:09:18;67.87;50.00;80.69;;
60872;Laerm;46714;50.118;14.462;2022-09-28T01:11:45;67.59;53.21;78.09;;
60872;Laerm;46714;50.118;14.462;2022-09-28T01:14:12;67.37;53.52;76.93;;
60872;Laerm;46714;50.118;14.462;2022-09-28T01:16:59;66.73;46.33;76.84;;
60872;Laerm;46714;50.118;14.462;2022-09-28T01:25:23;66.64;52.64;75.02;;
60872;Laerm;46714;50.118;14.462;2022-09-28T01:28:25;67.62;54.90;76.04;;
60872;Laerm;46714;50.118;14.462;2022-09-28T01:33:32;66.02;46.89;75.99;;
60872;Laerm;46714;50.118;14.462;2022-09-28T01:36:09;68.03;54.68;75.87;;
60872;Laerm;46714;50.118;14.462;2022-09-28T01:38:41;69.13;54.72;82.37;;
60872;Laerm;46714;50.118;14.462;2022-09-28T01:41:08;67.48;54.14;76.54;;
60872;Laerm;46714;50.118;14.462;2022-09-28T01:43:38;66.17;55.04;74.32;;
60872;Laerm;46714;50.118;14.462;2022-09-28T01:48:42;66.01;51.50;77.63;;
60872;Laerm;46714;50.118;14.462;2022-09-28T01:51:16;65.58;48.25;75.26;;
60872;Laerm;46714;50.118;14.462;2022-09-28T01:53:51;68.75;50.69;85.78;;
60872;Laerm;46714;50.118;14.462;2022-09-28T01:56:23;64.81;49.88;74.63;;
60872;Laerm;46714;50.118;14.462;2022-09-28T01:58:58;66.39;51.08;74.43;;
60872;Laerm;46714;50.118;14.462;2022-09-28T02:01:33;65.88;53.74;73.76;;
60872;Laerm;46714;50.118;14.462;2022-09-28T02:04:07;66.16;53.51;74.39;;
60872;Laerm;46714;50.118;14.462;2022-09-28T02:06:39;66.50;52.90;76.34;;
60872;Laerm;46714;50.118;14.462;2022-09-28T02:09:21;65.53;48.26;73.02;;
60872;Laerm;46714;50.118;14.462;2022-09-28T02:11:53;68.32;55.65;81.99;;
60872;Laerm;46714;50.118;14.462;2022-09-28T02:14:22;66.25;52.48;74.28;;
60872;Laerm;46714;50.118;14.462;2022-09-28T02:16:52;66.54;51.63;76.46;;
60872;Laerm;46714;50.118;14.462;2022-09-28T02:19:25;67.12;54.05;75.82;;
60872;Laerm;46714;50.118;14.462;2022-09-28T02:27:02;64.14;51.11;74.47;;
60872;Laerm;46714;50.118;14.462;2022-09-28T02:29:31;66.98;51.39;73.74;;
60872;Laerm;46714;50.118;14.462;2022-09-28T02:31:56;66.70;53.53;75.33;;
60872;Laerm;46714;50.118;14.462;2022-09-28T02:34:22;66.12;49.25;76.73;;
60872;Laerm;46714;50.118;14.462;2022-09-28T02:36:47;65.29;49.58;74.85;;
60872;Laerm;46714;50.118;14.462;2022-09-28T02:39:13;66.32;53.95;73.97;;
60872;Laerm;46714;50.118;14.462;2022-09-28T02:41:50;66.56;54.17;74.47;;
60872;Laerm;46714;50.118;14.462;2022-09-28T03:03:56;67.85;55.77;75.92;;
60872;Laerm;46714;50.118;14.462;2022-09-28T03:07:05;68.12;54.56;77.83;;
60872;Laerm;46714;50.118;14.462;2022-09-28T03:09:28;68.29;56.79;77.47;;
60872;Laerm;46714;50.118;14.462;2022-09-28T03:12:02;66.53;50.29;73.25;;
60872;Laerm;46714;50.118;14.462;2022-09-28T03:14:31;67.65;55.65;74.19;;
60872;Laerm;46714;50.118;14.462;2022-09-28T03:16:56;67.89;54.59;75.20;;
60872;Laerm;46714;50.118;14.462;2022-09-28T03:19:26;65.52;55.61;73.37;;
60872;Laerm;46714;50.118;14.462;2022-09-28T03:21:52;68.30;56.89;77.39;;
60872;Laerm;46714;50.118;14.462;2022-09-28T03:24:18;67.81;48.03;73.91;;
60872;Laerm;46714;50.118;14.462;2022-09-28T03:26:43;67.73;59.43;76.21;;
60872;Laerm;46714;50.118;14.462;2022-09-28T03:29:08;68.12;55.44;76.76;;
60872;Laerm;46714;50.118;14.462;2022-09-28T03:31:34;69.39;56.21;75.96;;
60872;Laerm;46714;50.118;14.462;2022-09-28T03:33:59;69.69;57.86;77.35;;
60872;Laerm;46714;50.118;14.462;2022-09-28T03:36:24;67.25;58.02;74.83;;
60872;Laerm;46714;50.118;14.462;2022-09-28T03:38:52;69.65;57.75;75.96;;
60872;Laerm;46714;50.118;14.462;2022-09-28T03:41:22;71.17;58.60;78.43;;
60872;Laerm;46714;50.118;14.462;2022-09-28T03:43:48;70.93;59.21;81.86;;
60872;Laerm;46714;50.118;14.462;2022-09-28T03:46:13;70.29;59.23;78.19;;
60872;Laerm;46714;50.118;14.462;2022-09-28T03:48:39;68.43;58.23;78.16;;
60872;Laerm;46714;50.118;14.462;2022-09-28T03:51:06;69.77;62.18;77.74;;
60872;Laerm;46714;50.118;14.462;2022-09-28T03:53:34;70.36;61.68;77.18;;
60872;Laerm;46714;50.118;14.462;2022-09-28T03:56:26;69.82;61.71;79.15;;
60872;Laerm;46714;50.118;14.462;2022-09-28T03:58:51;69.81;59.95;78.48;;
60872;Laerm;46714;50.118;14.462;2022-09-28T04:01:16;71.55;62.34;78.57;;
60872;Laerm;46714;50.118;14.462;2022-09-28T04:03:42;69.85;61.62;77.45;;
60872;Laerm;46714;50.118;14.462;2022-09-28T04:06:08;70.64;62.21;76.76;;
60872;Laerm;46714;50.118;14.462;2022-09-28T04:08:34;70.32;61.96;77.13;;
60872;Laerm;46714;50.118;14.462;2022-09-28T04:11:00;71.25;62.19;76.57;;
60872;Laerm;46714;50.118;14.462;2022-09-28T04:13:26;70.88;58.70;77.56;;
60872;Laerm;46714;50.118;14.462;2022-09-28T04:15:57;69.98;56.37;75.55;;
60872;Laerm;46714;50.118;14.462;2022-09-28T04:18:23;71.45;61.38;77.84;;
60872;Laerm;46714;50.118;14.462;2022-09-28T04:21:03;72.13;65.98;77.47;;
60872;Laerm;46714;50.118;14.462;2022-09-28T04:23:31;71.38;64.05;77.69;;
60872;Laerm;46714;50.118;14.462;2022-09-28T04:25:57;71.31;64.13;76.36;;
60872;Laerm;46714;50.118;14.462;2022-09-28T04:28:23;71.20;60.67;77.17;;
60872;Laerm;46714;50.118;14.462;2022-09-28T04:31:09;73.03;64.86;77.56;;
60872;Laerm;46714;50.118;14.462;2022-09-28T04:33:35;71.02;64.43;77.26;;
60872;Laerm;46714;50.118;14.462;2022-09-28T04:36:00;73.00;66.55;82.37;;
60872;Laerm;46714;50.118;14.462;2022-09-28T04:38:25;71.86;65.11;77.99;;
60872;Laerm;46714;50.118;14.462;2022-09-28T04:40:51;71.41;65.51;79.33;;
60872;Laerm;46714;50.118;14.462;2022-09-28T04:43:16;71.90;65.23;79.69;;
60872;Laerm;46714;50.118;14.462;2022-09-28T04:45:42;71.78;64.00;78.29;;
60872;Laerm;46714;50.118;14.462;2022-09-28T04:48:07;71.90;63.52;77.28;;
60872;Laerm;46714;50.118;14.462;2022-09-28T04:50:33;71.68;65.69;77.87;;
60872;Laerm;46714;50.118;14.462;2022-09-28T04:53:02;71.96;61.56;77.58;;
60872;Laerm;46714;50.118;14.462;2022-09-28T04:55:27;72.37;65.45;79.48;;
60872;Laerm;46714;50.118;14.462;2022-09-28T04:57:59;72.54;64.25;78.01;;
60872;Laerm;46714;50.118;14.462;2022-09-28T05:00:28;72.48;66.21;78.43;;
60872;Laerm;46714;50.118;14.462;2022-09-28T05:02:54;72.60;65.01;78.52;;
60872;Laerm;46714;50.118;14.462;2022-09-28T05:05:20;71.75;63.76;78.04;;
60872;Laerm;46714;50.118;14.462;2022-09-28T05:07:45;72.59;66.00;79.17;;
60872;Laerm;46714;50.118;14.462;2022-09-28T05:10:11;72.61;61.98;80.45;;
60872;Laerm;46714;50.118;14.462;2022-09-28T05:12:37;73.05;64.66;79.58;;
60872;Laerm;46714;50.118;14.462;2022-09-28T05:15:02;72.50;66.30;77.40;;
60872;Laerm;46714;50.118;14.462;2022-09-28T05:17:28;74.35;68.54;78.54;;
60872;Laerm;46714;50.118;14.462;2022-09-28T05:19:53;73.43;65.74;80.17;;
60872;Laerm;46714;50.118;14.462;2022-09-28T05:22:18;73.20;65.06;79.25;;
60872;Laerm;46714;50.118;14.462;2022-09-28T05:24:44;72.93;68.43;77.29;;
60872;Laerm;46714;50.118;14.462;2022-09-28T05:27:10;72.85;64.77;80.34;;
60872;Laerm;46714;50.118;14.462;2022-09-28T05:29:36;73.49;67.05;82.99;;
60872;Laerm;46714;50.118;14.462;2022-09-28T05:32:01;73.53;64.97;84.46;;
60872;Laerm;46714;50.118;14.462;2022-09-28T05:34:26;73.21;65.50;78.32;;
60872;Laerm;46714;50.118;14.462;2022-09-28T05:36:52;72.91;66.09;80.12;;
60872;Laerm;46714;50.118;14.462;2022-09-28T05:39:17;77.68;64.50;95.67;;
60872;Laerm;46714;50.118;14.462;2022-09-28T05:41:42;73.71;65.12;80.39;;
60872;Laerm;46714;50.118;14.462;2022-09-28T05:44:08;73.61;69.01;79.42;;
60872;Laerm;46714;50.118;14.462;2022-09-28T05:46:33;73.69;67.93;80.63;;
60872;Laerm;46714;50.118;14.462;2022-09-28T05:48:58;73.31;67.46;80.06;;
60872;Laerm;46714;50.118;14.462;2022-09-28T05:51:24;73.65;63.66;82.72;;
60872;Laerm;46714;50.118;14.462;2022-09-28T05:53:53;73.55;65.93;78.04;;
60872;Laerm;46714;50.118;14.462;2022-09-28T05:56:18;72.98;65.68;81.19;;
60872;Laerm;46714;50.118;14.462;2022-09-28T05:58:44;73.61;65.72;79.32;;
60872;Laerm;46714;50.118;14.462;2022-09-28T06:01:09;72.61;66.67;77.87;;
60872;Laerm;46714;50.118;14.462;2022-09-28T06:03:34;72.73;65.54;78.36;;
60872;Laerm;46714;50.118;14.462;2022-09-28T06:06:00;73.24;65.28;78.99;;
60872;Laerm;46714;50.118;14.462;2022-09-28T06:08:27;73.89;66.59;79.96;;
60872;Laerm;46714;50.118;14.462;2022-09-28T06:10:52;72.98;65.33;78.27;;
60872;Laerm;46714;50.118;14.462;2022-09-28T06:13:18;73.69;64.31;81.40;;
60872;Laerm;46714;50.118;14.462;2022-09-28T06:15:44;72.68;63.36;79.62;;
60872;Laerm;46714;50.118;14.462;2022-09-28T06:18:12;74.28;66.66;80.92;;
60872;Laerm;46714;50.118;14.462;2022-09-28T06:20:41;73.61;67.27;82.61;;
60872;Laerm;46714;50.118;14.462;2022-09-28T06:23:11;73.78;68.77;78.02;;
60872;Laerm;46714;50.118;14.462;2022-09-28T06:25:37;82.23;66.98;103.57;;
60872;Laerm;46714;50.118;14.462;2022-09-28T06:28:13;74.20;67.97;78.47;;
60872;Laerm;46714;50.118;14.462;2022-09-28T06:30:39;74.50;68.51;80.23;;
60872;Laerm;46714;50.118;14.462;2022-09-28T06:33:08;73.76;65.88;78.85;;
60872;Laerm;46714;50.118;14.462;2022-09-28T06:35:34;73.72;67.92;83.16;;
60872;Laerm;46714;50.118;14.462;2022-09-28T06:38:00;74.15;68.10;78.39;;
60872;Laerm;46714;50.118;14.462;2022-09-28T06:40:26;74.35;67.90;80.16;;
60872;Laerm;46714;50.118;14.462;2022-09-28T06:43:03;74.63;67.90;84.79;;
60872;Laerm;46714;50.118;14.462;2022-09-28T06:45:34;74.33;67.09;78.76;;
60872;Laerm;46714;50.118;14.462;2022-09-28T06:48:00;74.60;68.91;81.92;;
60872;Laerm;46714;50.118;14.462;2022-09-28T06:50:28;74.52;67.38;79.67;;
60872;Laerm;46714;50.118;14.462;2022-09-28T06:52:57;75.13;70.15;85.58;;
60872;Laerm;46714;50.118;14.462;2022-09-28T06:55:23;74.72;68.38;80.24;;
60872;Laerm;46714;50.118;14.462;2022-09-28T06:58:05;74.88;68.31;79.73;;
60872;Laerm;46714;50.118;14.462;2022-09-28T07:00:33;75.65;66.75;84.29;;
60872;Laerm;46714;50.118;14.462;2022-09-28T07:03:01;75.95;71.06;84.92;;
60872;Laerm;46714;50.118;14.462;2022-09-28T07:05:27;74.96;68.72;80.42;;
60872;Laerm;46714;50.118;14.462;2022-09-28T07:07:57;74.94;69.94;79.73;;
60872;Laerm;46714;50.118;14.462;2022-09-28T07:10:27;74.42;66.38;79.82;;
60872;Laerm;46714;50.118;14.462;2022-09-28T07:12:53;75.21;69.37;81.87;;
60872;Laerm;46714;50.118;14.462;2022-09-28T07:15:19;75.05;69.68;81.94;;
60872;Laerm;46714;50.118;14.462;2022-09-28T07:17:45;75.05;69.17;79.63;;
60872;Laerm;46714;50.118;14.462;2022-09-28T07:20:11;75.52;71.31;79.86;;
60872;Laerm;46714;50.118;14.462;2022-09-28T07:22:37;76.32;72.14;82.09;;
60872;Laerm;46714;50.118;14.462;2022-09-28T07:25:04;76.29;71.75;83.37;;
60872;Laerm;46714;50.118;14.462;2022-09-28T07:27:30;76.24;69.77;82.41;;
60872;Laerm;46714;50.118;14.462;2022-09-28T07:29:55;76.04;70.56;81.92;;
60872;Laerm;46714;50.118;14.462;2022-09-28T07:32:23;75.76;67.34;83.02;;
60872;Laerm;46714;50.118;14.462;2022-09-28T07:34:48;76.67;68.25;83.95;;
60872;Laerm;46714;50.118;14.462;2022-09-28T07:37:14;77.17;69.47;81.95;;
60872;Laerm;46714;50.118;14.462;2022-09-28T07:39:43;77.30;73.48;80.38;;
60872;Laerm;46714;50.118;14.462;2022-09-28T07:42:27;77.32;69.48;80.95;;
60872;Laerm;46714;50.118;14.462;2022-09-28T07:44:54;77.84;72.27;81.21;;
60872;Laerm;46714;50.118;14.462;2022-09-28T07:47:20;77.76;71.68;81.42;;
60872;Laerm;46714;50.118;14.462;2022-09-28T07:49:57;78.30;74.07;81.52;;
60872;Laerm;46714;50.118;14.462;2022-09-28T07:52:22;77.97;73.50;81.51;;
60872;Laerm;46714;50.118;14.462;2022-09-28T07:54:51;78.75;72.13;93.33;;
60872;Laerm;46714;50.118;14.462;2022-09-28T07:57:18;78.56;73.88;82.75;;
60872;Laerm;46714;50.118;14.462;2022-09-28T07:59:44;77.83;71.61;80.92;;
60872;Laerm;46714;50.118;14.462;2022-09-28T08:02:11;77.41;71.41;80.70;;
60872;Laerm;46714;50.118;14.462;2022-09-28T08:04:36;78.10;74.43;89.83;;
60872;Laerm;46714;50.118;14.462;2022-09-28T08:07:02;77.92;72.52;81.68;;
60872;Laerm;46714;50.118;14.462;2022-09-28T08:09:28;78.93;72.56;82.34;;
60872;Laerm;46714;50.118;14.462;2022-09-28T08:11:53;77.94;72.82;82.44;;
60872;Laerm;46714;50.118;14.462;2022-09-28T08:14:19;78.37;71.65;81.82;;
60872;Laerm;46714;50.118;14.462;2022-09-28T08:16:45;78.83;74.63;85.35;;
60872;Laerm;46714;50.118;14.462;2022-09-28T08:19:10;78.56;72.51;83.27;;
60872;Laerm;46714;50.118;14.462;2022-09-28T08:21:35;79.06;75.44;82.07;;
60872;Laerm;46714;50.118;14.462;2022-09-28T08:24:11;78.40;74.33;83.22;;
60872;Laerm;46714;50.118;14.462;2022-09-28T08:26:37;78.58;74.00;81.55;;
60872;Laerm;46714;50.118;14.462;2022-09-28T08:29:02;79.06;75.68;83.60;;
60872;Laerm;46714;50.118;14.462;2022-09-28T08:31:28;79.15;75.17;83.30;;
60872;Laerm;46714;50.118;14.462;2022-09-28T08:33:53;78.21;73.26;82.87;;
60872;Laerm;46714;50.118;14.462;2022-09-28T08:36:19;78.57;73.75;83.47;;
60872;Laerm;46714;50.118;14.462;2022-09-28T08:38:45;77.87;72.09;81.70;;
60872;Laerm;46714;50.118;14.462;2022-09-28T08:46:37;79.29;74.43;82.87;;
60872;Laerm;46714;50.118;14.462;2022-09-28T08:49:07;79.24;74.06;84.19;;
60872;Laerm;46714;50.118;14.462;2022-09-28T08:57:34;79.67;75.84;84.07;;
60872;Laerm;46714;50.118;14.462;2022-09-28T09:00:04;78.34;73.24;81.54;;
60872;Laerm;46714;50.118;14.462;2022-09-28T09:02:34;79.60;75.92;85.18;;
60872;Laerm;46714;50.118;14.462;2022-09-28T09:05:06;79.18;72.76;84.38;;
60872;Laerm;46714;50.118;14.462;2022-09-28T09:16:35;81.12;75.50;97.31;;
60872;Laerm;46714;50.118;14.462;2022-09-28T09:19:14;79.65;74.11;85.98;;
60872;Laerm;46714;50.118;14.462;2022-09-28T09:21:50;80.18;73.46;83.65;;
60872;Laerm;46714;50.118;14.462;2022-09-28T09:27:17;80.44;76.84;84.71;;
60872;Laerm;46714;50.118;14.462;2022-09-28T09:37:56;80.69;74.02;86.75;;
60872;Laerm;46714;50.118;14.462;2022-09-28T09:46:36;81.65;74.33;100.80;;
60872;Laerm;46714;50.118;14.462;2022-09-28T09:51:56;80.58;76.89;85.39;;
60872;Laerm;46714;50.118;14.462;2022-09-28T09:54:45;80.50;75.04;84.02;;
60872;Laerm;46714;50.118;14.462;2022-09-28T09:57:37;80.11;73.42;84.10;;
60872;Laerm;46714;50.118;14.462;2022-09-28T10:00:11;79.81;69.00;83.23;;
60872;Laerm;46714;50.118;14.462;2022-09-28T10:02:38;79.69;72.75;83.96;;
60872;Laerm;46714;50.118;14.462;2022-09-28T10:05:15;78.72;72.81;82.44;;
60872;Laerm;46714;50.118;14.462;2022-09-28T10:10:20;79.35;73.62;82.80;;
60872;Laerm;46714;50.118;14.462;2022-09-28T10:12:49;79.53;74.01;83.02;;
60872;Laerm;46714;50.118;14.462;2022-09-28T10:15:22;80.32;70.95;87.94;;
60872;Laerm;46714;50.118;14.462;2022-09-28T10:17:48;79.53;74.95;83.55;;
60872;Laerm;46714;50.118;14.462;2022-09-28T10:20:15;79.50;75.32;82.98;;
60872;Laerm;46714;50.118;14.462;2022-09-28T10:22:41;79.38;75.01;83.53;;
60872;Laerm;46714;50.118;14.462;2022-09-28T10:25:09;81.77;73.98;98.22;;
60872;Laerm;46714;50.118;14.462;2022-09-28T10:27:40;79.08;73.60;83.71;;
60872;Laerm;46714;50.118;14.462;2022-09-28T10:35:20;79.58;75.91;83.26;;
60872;Laerm;46714;50.118;14.462;2022-09-28T10:37:52;79.68;75.18;83.28;;
60872;Laerm;46714;50.118;14.462;2022-09-28T10:43:21;79.85;74.81;89.36;;
60872;Laerm;46714;50.118;14.462;2022-09-28T10:46:08;78.63;73.06;82.89;;
60872;Laerm;46714;50.118;14.462;2022-09-28T10:48:57;79.40;74.22;83.79;;
60872;Laerm;46714;50.118;14.462;2022-09-28T10:52:02;78.73;74.40;83.27;;
60872;Laerm;46714;50.118;14.462;2022-09-28T10:54:29;78.80;74.52;84.50;;
60872;Laerm;46714;50.118;14.462;2022-09-28T10:56:56;79.07;72.85;93.73;;
60872;Laerm;46714;50.118;14.462;2022-09-28T11:02:27;78.82;73.78;82.30;;
60872;Laerm;46714;50.118;14.462;2022-09-28T11:04:56;80.44;73.72;102.06;;
60872;Laerm;46714;50.118;14.462;2022-09-28T11:07:25;78.29;73.12;81.78;;
60872;Laerm;46714;50.118;14.462;2022-09-28T11:09:53;79.20;72.83;84.86;;
60872;Laerm;46714;50.118;14.462;2022-09-28T11:12:22;79.25;74.88;83.37;;
60872;Laerm;46714;50.118;14.462;2022-09-28T11:14:54;78.71;74.68;84.20;;
60872;Laerm;46714;50.118;14.462;2022-09-28T11:17:37;78.72;73.71;81.91;;
60872;Laerm;46714;50.118;14.462;2022-09-28T11:22:48;78.60;73.55;82.47;;
60872;Laerm;46714;50.118;14.462;2022-09-28T11:28:01;78.40;72.05;84.15;;
60872;Laerm;46714;50.118;14.462;2022-09-28T11:30:32;77.75;65.73;83.05;;
60872;Laerm;46714;50.118;14.462;2022-09-28T11:33:29;77.86;72.82;81.07;;
60872;Laerm;46714;50.118;14.462;2022-09-28T11:36:08;78.01;70.70;81.60;;
60872;Laerm;46714;50.118;14.462;2022-09-28T11:49:42;77.50;71.86;83.52;;
60872;Laerm;46714;50.118;14.462;2022-09-28T11:52:19;77.55;70.49;83.36;;
60872;Laerm;46714;50.118;14.462;2022-09-28T11:54:50;76.91;67.69;80.22;;
60872;Laerm;46714;50.118;14.462;2022-09-28T11:57:22;77.06;71.19;82.88;;
60872;Laerm;46714;50.118;14.462;2022-09-28T12:02:31;76.90;71.60;81.95;;
60872;Laerm;46714;50.118;14.462;2022-09-28T12:08:06;76.35;70.45;83.88;;
60872;Laerm;46714;50.118;14.462;2022-09-28T12:10:48;76.22;67.99;80.03;;
60872;Laerm;46714;50.118;14.462;2022-09-28T12:13:19;76.57;71.97;81.63;;
60872;Laerm;46714;50.118;14.462;2022-09-28T12:18:24;77.40;70.30;90.11;;
60872;Laerm;46714;50.118;14.462;2022-09-28T12:20:57;75.81;71.51;79.49;;
60872;Laerm;46714;50.118;14.462;2022-09-28T12:23:43;75.80;70.38;78.87;;
60872;Laerm;46714;50.118;14.462;2022-09-28T12:26:34;76.39;66.82;83.84;;
60872;Laerm;46714;50.118;14.462;2022-09-28T12:29:05;75.75;71.16;83.52;;
60872;Laerm;46714;50.118;14.462;2022-09-28T12:31:38;76.24;70.09;79.57;;
60872;Laerm;46714;50.118;14.462;2022-09-28T12:34:05;76.19;70.25;82.00;;
60872;Laerm;46714;50.118;14.462;2022-09-28T12:49:59;75.61;70.88;79.32;;
60872;Laerm;46714;50.118;14.462;2022-09-28T12:55:06;75.69;66.36;81.20;;
60872;Laerm;46714;50.118;14.462;2022-09-28T13:00:22;75.58;70.73;81.75;;
60872;Laerm;46714;50.118;14.462;2022-09-28T13:08:53;74.82;69.19;79.12;;
60872;Laerm;46714;50.118;14.462;2022-09-28T13:16:51;74.75;68.31;79.62;;
60872;Laerm;46714;50.118;14.462;2022-09-28T13:19:34;74.41;67.64;78.27;;
60872;Laerm;46714;50.118;14.462;2022-09-28T13:24:41;75.05;69.61;79.40;;
60872;Laerm;46714;50.118;14.462;2022-09-28T13:27:13;75.46;66.86;79.35;;
60872;Laerm;46714;50.118;14.462;2022-09-28T13:29:39;74.97;68.78;78.18;;
60872;Laerm;46714;50.118;14.462;2022-09-28T13:32:07;74.30;67.40;78.98;;
60872;Laerm;46714;50.118;14.462;2022-09-28T13:34:35;74.50;68.79;79.35;;
60872;Laerm;46714;50.118;14.462;2022-09-28T13:42:11;76.40;68.54;93.10;;
60872;Laerm;46714;50.118;14.462;2022-09-28T13:51:13;75.30;70.09;79.11;;
60872;Laerm;46714;50.118;14.462;2022-09-28T13:56:52;74.63;67.30;80.21;;
60872;Laerm;46714;50.118;14.462;2022-09-28T13:59:26;74.42;67.94;79.65;;
60872;Laerm;46714;50.118;14.462;2022-09-28T14:02:14;75.55;68.12;86.81;;
60872;Laerm;46714;50.118;14.462;2022-09-28T14:04:56;74.62;67.42;78.71;;
60872;Laerm;46714;50.118;14.462;2022-09-28T14:10:19;75.22;68.14;80.24;;
60872;Laerm;46714;50.118;14.462;2022-09-28T14:12:47;75.62;71.12;80.92;;
60872;Laerm;46714;50.118;14.462;2022-09-28T14:18:19;74.67;67.70;78.38;;
60872;Laerm;46714;50.118;14.462;2022-09-28T14:21:20;75.10;69.45;79.99;;
60872;Laerm;46714;50.118;14.462;2022-09-28T14:29:39;75.00;70.60;79.02;;
60872;Laerm;46714;50.118;14.462;2022-09-28T14:34:44;75.98;71.03;94.55;;
60872;Laerm;46714;50.118;14.462;2022-09-28T14:40:08;74.73;70.13;78.14;;
60872;Laerm;46714;50.118;14.462;2022-09-28T14:43:18;74.50;69.66;80.10;;
60872;Laerm;46714;50.118;14.462;2022-09-28T14:48:48;74.55;69.07;78.54;;
60872;Laerm;46714;50.118;14.462;2022-09-28T14:54:04;74.62;66.68;79.00;;
60872;Laerm;46714;50.118;14.462;2022-09-28T14:57:04;74.75;69.15;81.38;;
60872;Laerm;46714;50.118;14.462;2022-09-28T14:59:39;74.64;68.61;79.97;;
60872;Laerm;46714;50.118;14.462;2022-09-28T15:02:30;74.04;66.73;77.93;;
60872;Laerm;46714;50.118;14.462;2022-09-28T15:05:11;74.79;69.76;79.57;;
60872;Laerm;46714;50.118;14.462;2022-09-28T15:07:49;75.06;69.41;84.86;;
60872;Laerm;46714;50.118;14.462;2022-09-28T15:10:49;74.94;71.14;83.07;;
60872;Laerm;46714;50.118;14.462;2022-09-28T15:13:25;74.64;69.03;78.65;;
60872;Laerm;46714;50.118;14.462;2022-09-28T15:16:12;74.41;70.13;78.07;;
60872;Laerm;46714;50.118;14.462;2022-09-28T15:21:31;74.94;69.70;78.97;;
60872;Laerm;46714;50.118;14.462;2022-09-28T15:23:57;74.43;70.23;78.90;;
60872;Laerm;46714;50.118;14.462;2022-09-28T15:26:28;82.63;70.51;106.59;;
60872;Laerm;46714;50.118;14.462;2022-09-28T15:28:55;74.50;70.02;78.29;;
60872;Laerm;46714;50.118;14.462;2022-09-28T15:31:24;75.05;71.59;78.35;;
60872;Laerm;46714;50.118;14.462;2022-09-28T15:33:50;74.65;69.14;81.97;;
60872;Laerm;46714;50.118;14.462;2022-09-28T15:36:43;74.63;68.36;80.57;;
60872;Laerm;46714;50.118;14.462;2022-09-28T15:39:20;73.80;69.13;77.99;;
60872;Laerm;46714;50.118;14.462;2022-09-28T15:41:48;74.81;70.11;80.23;;
60872;Laerm;46714;50.118;14.462;2022-09-28T15:44:18;75.08;70.81;80.32;;
60872;Laerm;46714;50.118;14.462;2022-09-28T15:46:47;74.94;69.13;78.93;;
60872;Laerm;46714;50.118;14.462;2022-09-28T15:49:54;74.95;69.27;79.00;;
60872;Laerm;46714;50.118;14.462;2022-09-28T15:52:38;75.75;70.11;86.68;;
60872;Laerm;46714;50.118;14.462;2022-09-28T15:55:26;75.05;69.67;80.30;;
60872;Laerm;46714;50.118;14.462;2022-09-28T15:58:17;74.60;70.70;78.10;;
60872;Laerm;46714;50.118;14.462;2022-09-28T16:00:44;74.63;70.01;79.44;;
60872;Laerm;46714;50.118;14.462;2022-09-28T16:08:14;74.89;68.61;78.94;;
60872;Laerm;46714;50.118;14.462;2022-09-28T16:10:56;75.85;70.36;91.51;;
60872;Laerm;46714;50.118;14.462;2022-09-28T16:13:24;74.58;68.91;80.88;;
60872;Laerm;46714;50.118;14.462;2022-09-28T16:15:56;74.54;67.61;78.94;;
60872;Laerm;46714;50.118;14.462;2022-09-28T16:18:28;75.19;71.66;79.91;;
60872;Laerm;46714;50.118;14.462;2022-09-28T16:20:57;74.80;69.15;78.31;;
60872;Laerm;46714;50.118;14.462;2022-09-28T16:23:31;74.19;67.82;79.64;;
60872;Laerm;46714;50.118;14.462;2022-09-28T16:26:06;74.89;70.29;79.72;;
60872;Laerm;46714;50.118;14.462;2022-09-28T16:31:05;74.51;68.48;78.48;;
60872;Laerm;46714;50.118;14.462;2022-09-28T16:36:40;75.99;68.82;93.39;;
60872;Laerm;46714;50.118;14.462;2022-09-28T16:39:08;74.35;68.67;78.89;;
60872;Laerm;46714;50.118;14.462;2022-09-28T16:41:35;74.12;67.23;79.82;;
60872;Laerm;46714;50.118;14.462;2022-09-28T16:44:02;74.34;70.31;77.64;;
60872;Laerm;46714;50.118;14.462;2022-09-28T16:46:35;74.21;67.65;78.62;;
60872;Laerm;46714;50.118;14.462;2022-09-28T16:49:02;74.81;69.26;79.33;;
60872;Laerm;46714;50.118;14.462;2022-09-28T16:51:30;74.03;69.00;78.56;;
60872;Laerm;46714;50.118;14.462;2022-09-28T16:53:59;74.62;68.18;84.15;;
60872;Laerm;46714;50.118;14.462;2022-09-28T16:56:54;74.41;67.98;78.29;;
60872;Laerm;46714;50.118;14.462;2022-09-28T16:59:19;74.70;69.98;80.31;;
60872;Laerm;46714;50.118;14.462;2022-09-28T17:01:46;74.93;68.71;85.92;;
60872;Laerm;46714;50.118;14.462;2022-09-28T17:04:12;74.15;68.33;79.13;;
60872;Laerm;46714;50.118;14.462;2022-09-28T17:06:37;74.14;68.47;78.78;;
60872;Laerm;46714;50.118;14.462;2022-09-28T17:09:03;74.80;69.35;79.65;;
60872;Laerm;46714;50.118;14.462;2022-09-28T17:11:31;75.45;69.93;91.85;;
60872;Laerm;46714;50.118;14.462;2022-09-28T17:13:56;74.63;68.96;78.60;;